EmailTwitter


Surface observations / France / LFBO (07630)

Regions: Quebec | Canada | USA | Europe | France | UK | Elsewhere
Station
Display
Info & Location for LFBO (07630) | Help decoding METAR

Weather Conditions observed on 2017/08/18 at 14:30 UTC at TOULOUSE/BLAGNAC, FR (LFBO)

Temperature: 26.0 Celsius.

Dewpoint: 15.0 Celsius.

Relative Humidity: 51%

Humidex: 30.

Winds: Northwest at 26 km/h or 14 knots.

Mean Sea level Pressure: 101.90 kilopascals.

Coded METAR:

LFBO 181430Z AUTO 32014KT CAVOK 26/15 Q1019 TEMPO 4000 -RA=